Time;durP1;ratioP1;P1;durP2;ratioP2;P2;SDS_P1;SDS_P2;PMS_P1;PMS_P2;Temp;Humidity;BMP_temperature;BMP_pressure;BME280_temperature;BME280_humidity;BME280_pressure;Samples;Min_cycle;Max_cycle;Signal;HPM_P1;HPM_P2
2022/08/20 00:00:00;;;;;;;9.07;3.90;;;;;;;18.89;94.84;101665.41;5114285;28;20031;-77
2022/08/20 00:02:25;;;;;;;9.70;3.70;;;;;;;18.90;94.68;101664.31;5125219;28;20036;-78
2022/08/20 00:04:51;;;;;;;4.47;3.27;;;;;;;18.89;94.53;101661.78;5122870;27;20367;-77
2022/08/20 00:07:17;;;;;;;9.93;3.53;;;;;;;18.83;93.96;101657.16;5131323;28;20538;-77
2022/08/20 00:09:43;;;;;;;9.10;3.80;;;;;;;18.85;95.34;101664.19;5133080;28;20035;-78
2022/08/20 00:12:11;;;;;;;7.32;3.40;;;;;;;18.81;95.10;101653.75;5110429;28;20035;-77
2022/08/20 00:14:37;;;;;;;13.90;3.72;;;;;;;18.72;94.49;101655.16;5132812;27;20067;-78
2022/08/20 00:17:04;;;;;;;4.07;3.00;;;;;;;18.65;94.77;101655.22;5119045;27;20116;-78
2022/08/20 00:19:29;;;;;;;10.13;3.40;;;;;;;18.60;95.95;101662.53;5121565;28;20059;-77
2022/08/20 00:21:56;;;;;;;5.40;4.03;;;;;;;18.54;95.19;101660.69;5132330;28;20050;-77
2022/08/20 00:24:21;;;;;;;6.57;4.55;;;;;;;18.44;94.65;101668.66;5114281;28;20039;-77
2022/08/20 00:26:46;;;;;;;6.90;4.33;;;;;;;18.42;94.48;101670.84;5108519;28;20055;-78
2022/08/20 00:29:11;;;;;;;11.63;4.10;;;;;;;18.42;95.31;101665.28;5131739;27;20143;-78
2022/08/20 00:31:37;;;;;;;6.10;4.00;;;;;;;18.41;95.59;101666.38;5132231;28;20027;-77
2022/08/20 00:34:03;;;;;;;6.83;4.03;;;;;;;18.40;95.32;101667.47;5123761;27;20073;-78
2022/08/20 00:36:28;;;;;;;6.43;3.30;;;;;;;18.32;95.21;101664.97;5093384;28;20031;-78
2022/08/20 00:38:53;;;;;;;8.53;4.10;;;;;;;18.30;94.97;101670.69;5132541;27;20047;-77
2022/08/20 00:41:24;;;;;;;12.20;3.97;;;;;;;18.25;96.01;101670.53;5131427;27;20152;-77
2022/08/20 00:44:15;;;;;;;8.88;4.25;;;;;;;18.19;95.16;101668.66;5131422;28;20385;-77
2022/08/20 00:46:42;;;;;;;7.53;3.88;;;;;;;18.19;96.01;101667.84;5132318;28;20038;-77
2022/08/20 00:49:14;;;;;;;9.60;3.60;;;;;;;18.19;95.52;101665.06;5107826;28;20023;-78
2022/08/20 00:51:48;;;;;;;7.18;3.40;;;;;;;18.19;95.75;101662.28;5131955;27;20023;-77
2022/08/20 00:54:13;;;;;;;7.55;3.58;;;;;;;18.19;96.21;101667.84;5111709;28;20050;-78
2022/08/20 00:56:39;;;;;;;7.17;3.90;;;;;;;18.14;95.50;101662.94;5119759;28;20028;-77
2022/08/20 00:59:10;;;;;;;6.35;4.03;;;;;;;18.12;96.28;101654.03;5127600;28;20527;-77
2022/08/20 01:01:36;;;;;;;9.93;3.58;;;;;;;18.07;95.88;101661.31;5148042;27;20038;-77
2022/08/20 01:04:01;;;;;;;6.50;3.70;;;;;;;18.06;95.61;101666.03;5127526;28;20031;-78
2022/08/20 01:06:27;;;;;;;10.10;3.80;;;;;;;18.00;95.86;101657.75;5131570;27;20037;-77
2022/08/20 01:08:52;;;;;;;7.63;3.77;;;;;;;17.93;95.76;101659.72;5096109;28;20027;-77
2022/08/20 01:11:21;;;;;;;16.47;3.40;;;;;;;17.92;96.42;101655.28;5122973;28;20325;-77
2022/08/20 01:13:48;;;;;;;4.75;3.08;;;;;;;17.98;95.65;101662.69;5112754;28;20027;-77
2022/08/20 01:16:25;;;;;;;7.50;3.10;;;;;;;17.99;95.78;101664.38;5131696;28;20042;-78
2022/08/20 01:18:50;;;;;;;;;;;;;;;18.07;96.14;101670.47;5108794;28;20233;-77
2022/08/20 01:21:27;;;;;;;5.97;3.03;;;;;;;18.09;95.99;101668.31;5128489;27;20362;-77
2022/08/20 01:24:06;;;;;;;5.63;2.78;;;;;;;18.18;96.12;101671.66;5131754;28;20129;-78
2022/08/20 01:26:40;;;;;;;6.57;2.65;;;;;;;18.23;96.01;101675.47;5113303;28;20019;-77
2022/08/20 01:29:11;;;;;;;6.20;2.97;;;;;;;18.30;96.38;101678.19;5131674;28;20031;-77
2022/08/20 01:31:38;;;;;;;4.03;2.47;;;;;;;18.35;96.05;101678.38;5107832;28;20027;-77
2022/08/20 01:34:07;;;;;;;3.78;2.60;;;;;;;18.36;96.08;101680.09;5110910;28;20099;-78
2022/08/20 01:36:38;;;;;;;4.55;2.92;;;;;;;18.39;95.70;101676.84;5112474;28;20019;-78
2022/08/20 01:39:06;;;;;;;4.93;2.67;;;;;;;18.38;95.85;101680.69;5112190;28;20025;-77
2022/08/20 01:41:42;;;;;;;5.43;3.13;;;;;;;18.47;95.86;101690.44;5128781;28;20106;-77
2022/08/20 01:44:08;;;;;;;9.75;3.58;;;;;;;18.42;95.84;101681.94;5110869;28;20110;-78
2022/08/20 01:46:39;;;;;;;7.03;3.10;;;;;;;18.51;96.51;101683.34;5118467;27;20561;-78
2022/08/20 01:49:19;;;;;;;8.95;3.83;;;;;;;18.50;96.05;101674.16;5112637;28;20131;-78
2022/08/20 01:51:44;;;;;;;7.85;4.10;;;;;;;18.55;95.46;101676.25;5124856;27;20047;-77
2022/08/20 01:54:10;;;;;;;9.73;4.43;;;;;;;18.60;95.57;101674.50;5112725;28;20479;-77
2022/08/20 01:57:01;;;;;;;6.75;4.32;;;;;;;18.69;94.45;101683.38;5109985;28;20118;-77
2022/08/20 01:59:27;;;;;;;8.25;4.60;;;;;;;18.61;94.69;101689.19;5109109;28;20038;-77
2022/08/20 02:01:53;;;;;;;13.30;5.60;;;;;;;18.58;94.81;101684.13;5126264;28;20149;-77
2022/08/20 02:04:19;;;;;;;12.55;4.97;;;;;;;18.51;94.88;101684.19;5130224;28;20106;-76
2022/08/20 02:06:51;;;;;;;9.82;5.50;;;;;;;18.54;94.50;101693.97;5121749;27;20381;-76
2022/08/20 02:09:17;;;;;;;8.38;5.43;;;;;;;18.50;94.67;101688.03;5130870;28;20027;-76
2022/08/20 02:11:42;;;;;;;10.73;5.85;;;;;;;18.47;94.63;101690.44;5122823;28;20039;-76
2022/08/20 02:14:09;;;;;;;14.80;6.60;;;;;;;18.46;94.49;101695.13;5111385;28;20035;-76
2022/08/20 02:16:38;;;;;;;14.10;7.40;;;;;;;18.42;94.50;101693.88;5131051;28;20117;-77
2022/08/20 02:19:21;;;;;;;16.40;8.43;;;;;;;18.40;94.02;101692.44;5130642;28;20486;-76
2022/08/20 02:21:51;;;;;;;18.13;9.45;;;;;;;18.38;94.00;101691.78;5108935;28;20387;-76
2022/08/20 02:24:19;;;;;;;19.50;8.20;;;;;;;18.31;93.98;101682.66;5111748;28;20019;-77
2022/08/20 02:26:44;;;;;;;13.23;7.70;;;;;;;18.26;92.72;101688.84;5112311;28;20515;-77
2022/08/20 02:29:11;;;;;;;14.17;7.27;;;;;;;18.32;90.96;101695.47;5125485;28;20027;-77
2022/08/20 02:31:38;;;;;;;9.75;6.45;;;;;;;18.21;91.17;101690.63;5122824;27;20023;-77
2022/08/20 02:34:04;;;;;;;;;;;;;;;18.18;88.82;101691.06;5152015;27;20525;-77
2022/08/20 02:36:30;;;;;;;9.93;5.05;;;;;;;18.11;88.04;101690.28;5138310;27;19919;-77
2022/08/20 02:38:56;;;;;;;12.63;5.35;;;;;;;18.04;88.34;101689.50;5130351;28;20023;-77
2022/08/20 02:41:21;;;;;;;9.53;5.47;;;;;;;17.93;87.25;101699.38;5125380;28;20043;-76
2022/08/20 02:43:48;;;;;;;7.17;4.13;;;;;;;17.86;87.58;101692.19;5128689;27;20054;-76
2022/08/20 02:46:14;;;;;;;18.70;4.38;;;;;;;17.81;85.26;101700.31;5119487;27;20035;-77
2022/08/20 02:48:40;;;;;;;12.38;4.32;;;;;;;17.71;85.36;101705.53;5111677;28;20403;-76
2022/08/20 02:51:07;;;;;;;14.50;4.30;;;;;;;17.69;85.37;101702.09;5128534;28;20119;-76
2022/08/20 02:53:36;;;;;;;7.88;3.42;;;;;;;17.70;85.77;101703.81;5126706;28;20031;-78
2022/08/20 02:56:03;;;;;;;13.70;3.58;;;;;;;17.62;86.62;101695.78;5112013;28;20486;-76
2022/08/20 02:58:29;;;;;;;9.20;3.88;;;;;;;17.50;86.88;101708.63;5111437;28;20505;-77
2022/08/20 03:00:55;;;;;;;13.17;4.57;;;;;;;17.42;87.90;101698.66;5110416;28;20027;-76
2022/08/20 03:03:22;;;;;;;8.73;4.03;;;;;;;17.37;87.81;101700.34;5132614;27;20110;-76
2022/08/20 03:05:50;;;;;;;10.02;4.05;;;;;;;17.34;88.12;101701.63;5133125;27;20035;-76
2022/08/20 03:08:16;;;;;;;11.35;3.97;;;;;;;17.24;89.07;101698.47;5113896;27;20027;-77
2022/08/20 03:10:45;;;;;;;8.63;3.88;;;;;;;17.12;89.68;101699.41;5131948;28;20023;-77
2022/08/20 03:13:11;;;;;;;10.82;3.65;;;;;;;17.09;90.50;101699.84;5133510;28;20063;-77
2022/08/20 03:15:41;;;;;;;7.63;4.72;;;;;;;17.05;89.84;101701.34;5132857;27;20062;-76
2022/08/20 03:18:07;;;;;;;12.55;3.95;;;;;;;17.00;90.88;101703.91;5133703;28;20038;-77
2022/08/20 03:20:33;;;;;;;12.43;4.33;;;;;;;17.01;91.62;101711.13;5132564;28;20490;-77
2022/08/20 03:22:59;;;;;;;14.00;4.60;;;;;;;17.00;91.46;101704.75;5131806;28;20050;-76
2022/08/20 03:25:24;;;;;;;16.33;4.37;;;;;;;17.10;91.30;101712.59;5136184;27;20024;-76
2022/08/20 03:27:50;;;;;;;9.37;4.23;;;;;;;17.09;91.76;101706.22;5077698;28;20325;-77
2022/08/20 03:30:16;;;;;;;11.53;3.97;;;;;;;17.12;91.08;101713.25;5104571;28;20327;-77
2022/08/20 03:32:42;;;;;;;8.25;3.90;;;;;;;17.19;91.02;101714.91;5133279;28;20497;-76
2022/08/20 03:35:10;;;;;;;15.10;4.68;;;;;;;17.23;91.33;101709.81;5132400;27;20042;-76
2022/08/20 03:37:36;;;;;;;15.45;4.53;;;;;;;17.21;91.21;101712.78;5129070;28;20023;-76
2022/08/20 03:40:05;;;;;;;14.82;4.40;;;;;;;17.21;91.41;101715.56;5096239;28;20027;-77
2022/08/20 03:42:30;;;;;;;8.35;3.60;;;;;;;17.17;92.22;101711.50;5113505;27;20043;-77
2022/08/20 03:44:56;;;;;;;14.40;4.83;;;;;;;17.13;91.61;101704.72;5133815;27;20037;-77
2022/08/20 03:47:22;;;;;;;18.03;4.17;;;;;;;17.14;91.94;101708.34;5132679;28;20041;-76
2022/08/20 03:49:48;;;;;;;;;;;;;;;17.12;91.79;101724.34;5113217;27;20051;-76
2022/08/20 03:52:13;;;;;;;8.35;3.50;;;;;;;17.06;92.01;101723.28;5134149;27;19965;-77
2022/08/20 03:54:39;;;;;;;18.60;3.87;;;;;;;16.98;92.37;101719.91;5153873;27;20455;-76
2022/08/20 03:57:05;;;;;;;5.83;3.67;;;;;;;16.92;92.90;101712.47;5133874;27;20040;-76
2022/08/20 03:59:33;;;;;;;16.00;3.60;;;;;;;16.87;92.71;101710.31;5130769;28;20062;-76
2022/08/20 04:01:59;;;;;;;7.32;4.03;;;;;;;16.78;92.67;101713.56;5129977;28;20066;-76
2022/08/20 04:04:25;;;;;;;11.77;3.60;;;;;;;16.66;92.88;101712.53;5132832;28;20035;-77
2022/08/20 04:06:50;;;;;;;7.60;3.63;;;;;;;16.62;93.01;101722.31;5132052;27;20046;-78
2022/08/20 04:09:16;;;;;;;6.23;3.63;;;;;;;16.57;93.08;101722.09;5113725;28;20023;-77
2022/08/20 04:11:44;;;;;;;7.67;3.40;;;;;;;16.54;93.89;101722.56;5112857;28;20027;-77
2022/08/20 04:14:10;;;;;;;11.00;4.20;;;;;;;16.50;93.70;101732.34;5130813;27;20034;-78
2022/08/20 04:16:38;;;;;;;11.02;4.38;;;;;;;16.45;93.45;101732.13;5132110;28;20035;-77
2022/08/20 04:19:03;;;;;;;6.63;3.72;;;;;;;16.37;93.38;101737.81;5132619;28;20023;-77
2022/08/20 04:21:30;;;;;;;4.70;3.03;;;;;;;16.32;93.98;101734.88;5104272;28;20078;-78
2022/08/20 04:23:56;;;;;;;11.80;4.18;;;;;;;16.23;93.86;101728.69;5113199;28;20027;-78
2022/08/20 04:26:22;;;;;;;6.35;3.88;;;;;;;16.21;94.65;101733.59;5131748;28;20036;-77
2022/08/20 04:28:48;;;;;;;12.20;5.07;;;;;;;16.17;94.23;101742.53;5132149;28;20102;-78
2022/08/20 04:31:16;;;;;;;11.85;3.92;;;;;;;16.14;94.55;101737.41;5113574;28;20419;-78
2022/08/20 04:33:42;;;;;;;9.68;3.60;;;;;;;16.01;93.98;101738.25;5127357;27;20083;-78
2022/08/20 04:36:08;;;;;;;8.32;3.83;;;;;;;15.94;93.95;101740.16;5118307;28;20028;-78
2022/08/20 04:38:34;;;;;;;7.87;3.97;;;;;;;15.87;94.83;101733.78;5123055;28;20152;-78
2022/08/20 04:40:59;;;;;;;8.73;4.03;;;;;;;15.89;95.24;101741.84;5111053;28;20083;-78
2022/08/20 04:43:37;;;;;;;4.93;3.90;;;;;;;15.87;95.55;101732.91;5130177;28;20037;-77
2022/08/20 04:46:08;;;;;;;9.55;4.65;;;;;;;15.86;95.23;101739.50;5131698;27;20106;-78
2022/08/20 04:48:33;;;;;;;9.25;5.68;;;;;;;15.83;96.01;101745.44;5112942;28;20079;-79
2022/08/20 04:51:00;;;;;;;14.97;4.87;;;;;;;15.70;95.22;101751.78;5131238;27;20027;-79
2022/08/20 04:53:26;;;;;;;;;;;;;;;15.77;95.69;101749.03;5112210;28;20188;-78
2022/08/20 04:55:54;;;;;;;11.68;4.55;;;;;;;15.75;95.89;101753.94;5130414;28;19919;-78
2022/08/20 04:58:32;;;;;;;14.25;5.65;;;;;;;15.74;95.98;101746.72;5112199;28;20047;-77
2022/08/20 05:01:02;;;;;;;9.10;5.00;;;;;;;15.68;95.25;101753.91;5128795;27;20035;-78
2022/08/20 05:03:28;;;;;;;5.80;4.40;;;;;;;15.67;95.85;101754.09;5111069;28;20030;-77
2022/08/20 05:05:53;;;;;;;12.43;4.90;;;;;;;15.61;94.69;101755.81;5120505;28;20076;-78
2022/08/20 05:08:21;;;;;;;11.93;4.87;;;;;;;15.60;96.22;101758.78;5129998;27;20278;-78
2022/08/20 05:10:47;;;;;;;7.88;4.40;;;;;;;15.63;95.83;101767.50;5130384;28;20134;-77
2022/08/20 05:13:13;;;;;;;10.17;4.10;;;;;;;15.65;96.09;101770.06;5129569;27;20701;-77
2022/08/20 05:15:39;;;;;;;12.00;4.87;;;;;;;15.66;96.25;101769.00;5130450;28;20037;-77
2022/08/20 05:18:06;;;;;;;10.88;4.90;;;;;;;15.70;96.00;101764.75;5131613;27;20023;-79
2022/08/20 05:20:37;;;;;;;11.88;4.80;;;;;;;15.66;95.11;101763.47;5127979;27;20431;-78
2022/08/20 05:23:02;;;;;;;14.73;4.30;;;;;;;15.71;95.91;101774.75;5123416;27;20019;-78
2022/08/20 05:25:29;;;;;;;13.77;4.87;;;;;;;15.73;95.55;101783.66;5130235;27;20089;-77
2022/08/20 05:28:08;;;;;;;7.43;4.63;;;;;;;15.72;95.50;101791.13;5093725;28;20024;-78
2022/08/20 05:30:35;;;;;;;7.13;4.05;;;;;;;15.75;94.15;101787.09;5126214;27;20110;-76
2022/08/20 05:33:03;;;;;;;12.00;4.40;;;;;;;15.79;94.58;101782.84;5134515;27;20042;-76
2022/08/20 05:35:30;;;;;;;14.20;8.27;;;;;;;15.86;94.76;101780.94;5115872;28;20198;-77
2022/08/20 05:37:56;;;;;;;10.82;6.93;;;;;;;15.86;95.63;101787.31;5129586;27;20059;-76
2022/08/20 05:40:22;;;;;;;12.45;6.85;;;;;;;15.92;94.48;101791.16;5129503;27;20026;-77
2022/08/20 05:42:48;;;;;;;12.90;6.65;;;;;;;15.96;94.63;101792.47;5131102;28;20509;-77
2022/08/20 05:45:15;;;;;;;9.50;5.22;;;;;;;16.03;94.99;101805.22;5127034;27;20038;-77
2022/08/20 05:47:41;;;;;;;9.32;5.25;;;;;;;16.08;94.80;101794.41;5111464;27;20046;-76
2022/08/20 05:50:09;;;;;;;12.63;4.70;;;;;;;16.14;94.24;101799.09;5111616;28;20023;-77
2022/08/20 05:52:35;;;;;;;7.30;4.18;;;;;;;16.15;94.17;101797.16;5109551;28;20470;-78
2022/08/20 05:55:00;;;;;;;7.63;4.47;;;;;;;16.22;94.27;101807.16;5127375;28;20031;-77
2022/08/20 05:57:26;;;;;;;8.87;5.40;;;;;;;16.31;94.65;101807.81;5130623;28;20055;-77
2022/08/20 05:59:52;;;;;;;8.33;5.23;;;;;;;16.43;94.61;101811.72;5123091;27;20431;-77
2022/08/20 06:05:01;;;;;;;15.07;5.60;;;;;;;16.64;94.24;101814.28;5123753;27;20069;-77
2022/08/20 06:07:27;;;;;;;11.77;5.80;;;;;;;16.66;94.53;101803.81;5110709;28;20125;-77
2022/08/20 06:09:52;;;;;;;11.17;5.47;;;;;;;16.77;94.11;101811.47;5110795;28;20035;-76
2022/08/20 06:12:17;;;;;;;9.40;5.23;;;;;;;16.83;93.22;101805.94;5131050;28;20042;-78
2022/08/20 06:14:43;;;;;;;12.50;5.30;;;;;;;16.99;93.31;101810.16;5126107;28;20035;-78
2022/08/20 06:17:13;;;;;;;15.93;4.77;;;;;;;17.07;92.48;101813.56;5112113;28;20446;-78
2022/08/20 06:19:39;;;;;;;15.02;5.05;;;;;;;17.18;92.01;101803.75;5121809;27;20039;-78
2022/08/20 06:22:05;;;;;;;13.02;4.72;;;;;;;17.29;91.22;101815.00;5123162;27;20015;-78
2022/08/20 06:24:31;;;;;;;16.30;4.80;;;;;;;17.39;91.11;101809.88;5105721;28;20528;-77
2022/08/20 06:26:59;;;;;;;16.05;5.90;;;;;;;17.49;89.06;101817.72;5105403;28;20470;-78
2022/08/20 06:29:26;;;;;;;17.35;4.93;;;;;;;17.53;89.00;101808.78;5123301;28;20390;-79
2022/08/20 06:31:51;;;;;;;11.80;3.88;;;;;;;17.59;88.52;101795.94;5127612;27;20489;-77
2022/08/20 06:34:17;;;;;;;8.50;3.90;;;;;;;17.76;86.85;101802.72;5092387;28;20027;-78
2022/08/20 06:36:45;;;;;;;10.83;4.13;;;;;;;17.89;86.20;101816.50;5123099;27;20132;-76
2022/08/20 06:39:14;;;;;;;10.50;3.60;;;;;;;18.06;83.22;101803.81;5126922;27;20022;-81
2022/08/20 06:41:39;;;;;;;8.90;3.65;;;;;;;18.01;84.14;101806.41;5118690;27;20058;-79
2022/08/20 06:44:09;;;;;;;10.97;3.17;;;;;;;18.07;81.28;101811.06;5110789;28;20081;-81
2022/08/20 06:46:35;;;;;;;14.45;3.92;;;;;;;18.35;81.46;101806.84;5125202;27;20063;-80
2022/08/20 06:49:02;;;;;;;14.18;4.10;;;;;;;19.28;77.28;101811.34;5127879;27;20745;-82
2022/08/20 06:51:28;;;;;;;14.50;3.53;;;;;;;20.24;75.21;101813.09;5105425;28;20039;-80
2022/08/20 06:53:53;;;;;;;11.75;3.17;;;;;;;21.03;71.03;101813.53;5125003;27;20436;-82
2022/08/20 06:56:18;;;;;;;11.30;3.20;;;;;;;21.75;67.33;101815.75;5127862;27;20040;-82
2022/08/20 06:58:44;;;;;;;7.73;3.00;;;;;;;22.00;68.26;101819.06;5126107;27;20031;-81
2022/08/20 07:01:11;;;;;;;11.87;3.07;;;;;;;22.42;62.78;101814.88;5123199;27;20062;-80
2022/08/20 07:03:40;;;;;;;11.07;3.10;;;;;;;22.45;65.10;101818.03;5125771;27;20044;-82
2022/08/20 07:06:07;;;;;;;7.78;2.50;;;;;;;22.74;61.95;101819.66;5128299;27;20033;-83
2022/08/20 07:08:32;;;;;;;;;;;;;;;22.93;62.60;101828.63;5129236;27;20106;-80
2022/08/20 07:10:58;;;;;;;11.32;3.15;;;;;;;22.90;62.08;101829.97;5126493;27;20460;-83
2022/08/20 07:13:24;;;;;;;9.88;2.60;;;;;;;23.08;59.27;101832.53;5108812;27;20035;-82
2022/08/20 07:15:49;;;;;;;11.55;2.90;;;;;;;23.24;59.02;101839.22;5126105;27;20031;-80
2022/08/20 07:18:15;;;;;;;9.43;2.97;;;;;;;23.33;57.52;101846.09;5125611;27;20087;-82
2022/08/20 07:20:43;;;;;;;11.07;2.53;;;;;;;23.15;55.86;101833.19;5136592;27;20275;-81
2022/08/20 07:23:10;;;;;;;9.30;2.13;;;;;;;23.21;56.41;101839.75;5125383;27;20507;-81
2022/08/20 07:25:37;;;;;;;8.68;2.42;;;;;;;23.26;55.89;101845.44;5127460;28;20057;-82
2022/08/20 07:28:07;;;;;;;11.63;2.20;;;;;;;23.20;61.10;101846.47;5111463;28;20080;-81
2022/08/20 07:33:20;;;;;;;9.13;2.28;;;;;;;23.38;54.72;101854.56;5129597;28;20451;-81
2022/08/20 07:35:47;;;;;;;10.15;2.63;;;;;;;23.38;51.43;101852.59;5126666;28;20031;-84
2022/08/20 07:38:22;;;;;;;10.70;2.65;;;;;;;23.38;51.09;101852.59;5119396;27;20034;-82
2022/08/20 07:40:52;;;;;;;8.23;1.95;;;;;;;23.43;52.72;101858.25;5101233;27;20039;-83
2022/08/20 07:43:20;;;;;;;8.75;2.15;;;;;;;23.28;52.09;101848.81;5113390;27;20113;-81
2022/08/20 07:45:45;;;;;;;12.00;2.88;;;;;;;23.14;55.41;101853.88;5131382;27;20019;-82
2022/08/20 07:48:13;;;;;;;12.80;2.60;;;;;;;22.59;53.24;101857.66;5123885;27;20034;-81
2022/08/20 07:50:38;;;;;;;8.68;2.70;;;;;;;22.20;55.88;101856.59;5110449;28;20071;-82
2022/08/20 07:53:04;;;;;;;10.70;2.70;;;;;;;21.78;55.71;101868.28;5130704;27;20507;-82
2022/08/20 07:55:30;;;;;;;5.35;2.30;;;;;;;21.79;57.95;101868.03;5107842;28;20038;-81
2022/08/20 07:57:58;;;;;;;6.82;2.10;;;;;;;21.91;51.14;101873.56;5111386;27;20394;-82
2022/08/20 08:00:24;;;;;;;7.57;1.98;;;;;;;22.08;55.07;101868.94;5125986;27;20038;-82
2022/08/20 08:02:50;;;;;;;12.30;2.90;;;;;;;22.07;54.17;101879.22;5124341;27;20038;-83
2022/08/20 08:05:17;;;;;;;12.27;2.33;;;;;;;22.13;53.21;101877.38;5131112;27;20031;-83
2022/08/20 08:07:44;;;;;;;13.35;2.30;;;;;;;22.08;55.72;101877.28;5112037;27;20463;-78
2022/08/20 08:10:15;;;;;;;13.18;2.42;;;;;;;22.17;50.78;101884.16;5108484;28;20058;-80
2022/08/20 08:12:48;;;;;;;9.70;2.95;;;;;;;22.12;53.64;101872.88;5133536;27;20042;-80
2022/08/20 08:15:17;;;;;;;11.35;2.70;;;;;;;22.08;51.88;101878.13;5128863;27;20080;-80
2022/08/20 08:17:47;;;;;;;11.55;2.40;;;;;;;22.00;50.53;101872.09;5130104;27;20367;-80
2022/08/20 08:20:14;;;;;;;6.03;2.28;;;;;;;22.14;51.80;101873.50;5118196;28;20053;-80
2022/08/20 08:22:41;;;;;;;14.65;2.45;;;;;;;22.03;50.78;101872.44;5130465;27;20114;-80
2022/08/20 08:25:09;;;;;;;10.85;2.65;;;;;;;22.11;51.78;101879.56;5134653;27;20080;-81
2022/08/20 08:27:34;;;;;;;14.90;2.28;;;;;;;22.06;50.02;101877.53;5112589;27;20068;-80
2022/08/20 08:30:01;;;;;;;6.30;2.20;;;;;;;22.28;52.44;101874.91;5112695;28;20027;-81
2022/08/20 08:32:27;;;;;;;15.10;2.67;;;;;;;22.10;50.97;101883.47;5131536;27;20281;-81
2022/08/20 08:34:53;;;;;;;14.25;3.03;;;;;;;22.22;52.78;101884.28;5132849;27;20019;-81
2022/08/20 08:37:18;;;;;;;14.93;2.70;;;;;;;22.37;51.92;101879.00;5124881;27;20517;-80
2022/08/20 08:39:43;;;;;;;11.97;2.43;;;;;;;22.43;51.54;101881.66;5130523;27;20019;-81
2022/08/20 08:42:25;;;;;;;9.87;2.10;;;;;;;22.39;48.13;101883.22;5111171;27;20031;-81
2022/08/20 08:44:52;;;;;;;9.20;2.60;;;;;;;22.45;52.65;101884.19;5121791;27;20031;-81
2022/08/20 08:47:28;;;;;;;9.77;2.50;;;;;;;22.53;51.90;101890.25;5112972;28;20031;-81
2022/08/20 08:49:55;;;;;;;8.77;2.53;;;;;;;22.52;51.61;101890.50;5127571;27;20016;-81
2022/08/20 08:52:25;;;;;;;10.73;2.53;;;;;;;22.62;47.34;101893.47;5131177;27;20027;-81
2022/08/20 08:54:57;;;;;;;11.40;2.53;;;;;;;22.47;47.29;101882.84;5131211;27;20039;-80
2022/08/20 08:57:23;;;;;;;9.95;2.58;;;;;;;22.74;47.06;101883.09;5113701;28;20432;-81
2022/08/20 08:59:55;;;;;;;6.85;1.90;;;;;;;22.81;47.34;101884.63;5112333;28;20111;-80
2022/08/20 09:02:24;;;;;;;8.55;2.15;;;;;;;22.92;45.62;101885.63;5132282;28;20041;-80
2022/08/20 09:04:55;;;;;;;14.57;2.30;;;;;;;22.84;43.35;101883.28;5131664;27;20539;-81
2022/08/20 09:07:23;;;;;;;12.02;2.30;;;;;;;23.01;42.96;101886.91;5132197;27;20052;-81
2022/08/20 09:09:50;;;;;;;16.88;2.65;;;;;;;23.01;42.76;101881.31;5117771;27;20556;-80
2022/08/20 09:12:17;;;;;;;;;;;;;;;23.29;45.73;101895.25;5113833;27;20402;-80
2022/08/20 09:14:45;;;;;;;12.23;2.45;;;;;;;23.45;45.60;101891.56;5124990;27;20011;-80
2022/08/20 09:17:11;;;;;;;9.93;2.88;;;;;;;23.35;46.03;101894.22;5126470;27;20029;-81
2022/08/20 09:19:36;;;;;;;18.43;2.33;;;;;;;23.38;45.87;101882.53;5130837;27;20035;-80
2022/08/20 09:22:15;;;;;;;11.63;2.50;;;;;;;23.50;48.63;101880.47;5129925;28;20027;-81
2022/08/20 09:24:41;;;;;;;9.52;2.65;;;;;;;23.54;46.03;101878.84;5123774;27;20054;-80
2022/08/20 09:27:07;;;;;;;8.05;2.58;;;;;;;23.58;46.36;101888.44;5125715;27;20030;-80
2022/08/20 09:29:33;;;;;;;7.32;2.83;;;;;;;23.90;47.80;101893.09;5121988;27;20381;-80
2022/08/20 09:32:09;;;;;;;10.95;2.40;;;;;;;24.05;46.73;101893.31;5127272;28;20035;-80
2022/08/20 09:34:40;;;;;;;10.75;2.85;;;;;;;24.13;47.36;101892.00;5108947;28;20059;-79
2022/08/20 09:37:06;;;;;;;10.57;3.20;;;;;;;23.93;46.50;101898.22;5128425;28;20024;-79
2022/08/20 09:39:31;;;;;;;13.47;2.10;;;;;;;24.43;47.69;101892.38;5127672;27;20023;-79
2022/08/20 09:42:07;;;;;;;10.93;2.13;;;;;;;24.47;44.42;101893.53;5127162;27;20031;-80
2022/08/20 09:44:32;;;;;;;11.40;2.40;;;;;;;24.38;44.93;101892.31;5125852;27;20019;-80
2022/08/20 09:46:57;;;;;;;11.43;3.33;;;;;;;24.66;45.55;101892.94;5107309;28;20027;-79
2022/08/20 09:49:23;;;;;;;13.87;2.70;;;;;;;24.28;46.17;101883.81;5125441;27;20595;-79
2022/08/20 09:51:48;;;;;;;10.30;2.57;;;;;;;24.27;44.26;101884.91;5122432;27;20039;-79
2022/08/20 09:54:13;;;;;;;17.90;2.60;;;;;;;24.20;44.23;101879.50;5120613;28;20477;-80
2022/08/20 09:56:39;;;;;;;11.83;2.87;;;;;;;24.07;46.79;101887.47;5109198;28;20027;-80
2022/08/20 09:59:04;;;;;;;11.13;2.63;;;;;;;24.11;46.18;101880.25;5129719;28;20023;-80
2022/08/20 10:01:30;;;;;;;12.00;2.47;;;;;;;24.17;43.52;101885.63;5129036;28;20031;-80
2022/08/20 10:03:55;;;;;;;11.83;2.30;;;;;;;23.96;44.39;101880.03;5128445;27;20027;-80
2022/08/20 10:06:20;;;;;;;8.60;1.90;;;;;;;24.04;47.19;101882.38;5127299;28;20035;-81
2022/08/20 10:08:46;;;;;;;10.47;3.00;;;;;;;24.06;44.07;101885.78;5114715;27;20019;-80
2022/08/20 10:11:12;;;;;;;12.57;2.30;;;;;;;23.93;45.42;101884.22;5114441;27;20050;-80
2022/08/20 10:13:37;;;;;;;7.93;1.73;;;;;;;24.02;47.16;101879.81;5116026;27;20027;-80
2022/08/20 10:16:03;;;;;;;12.27;2.60;;;;;;;24.06;44.59;101885.78;5127085;27;20022;-80
2022/08/20 10:18:28;;;;;;;14.07;2.47;;;;;;;23.97;45.13;101881.72;5105095;27;20035;-78
2022/08/20 10:20:53;;;;;;;8.23;2.37;;;;;;;23.99;44.45;101887.91;5110282;27;20657;-78
2022/08/20 10:23:19;;;;;;;15.57;2.70;;;;;;;23.97;45.37;101887.31;5131448;27;20031;-77
2022/08/20 10:25:44;;;;;;;10.17;1.97;;;;;;;24.09;45.58;101880.50;5127359;27;20190;-77
2022/08/20 10:28:09;;;;;;;9.23;1.70;;;;;;;24.35;45.75;101879.69;5107358;28;20034;-78
2022/08/20 10:30:35;;;;;;;7.63;1.70;;;;;;;24.42;44.39;101885.94;5127335;28;20498;-78
2022/08/20 10:33:00;;;;;;;17.00;2.53;;;;;;;24.51;43.20;101880.69;5122393;28;20027;-78
2022/08/20 10:35:25;;;;;;;10.50;1.70;;;;;;;24.75;42.83;101879.31;5119070;28;20153;-78
2022/08/20 10:37:51;;;;;;;24.30;2.57;;;;;;;24.95;43.10;101882.28;5124826;28;20494;-78
2022/08/20 10:40:16;;;;;;;11.20;2.30;;;;;;;24.67;43.35;101886.25;5116942;28;20503;-78
2022/08/20 10:42:42;;;;;;;9.40;2.10;;;;;;;24.55;44.28;101891.09;5099808;28;20027;-79
2022/08/20 10:45:10;;;;;;;7.93;1.80;;;;;;;24.62;44.38;101885.31;5124208;27;20019;-79
2022/08/20 10:47:35;;;;;;;6.78;1.85;;;;;;;24.23;43.56;101889.34;5124422;27;20047;-79
2022/08/20 10:50:05;;;;;;;13.40;2.50;;;;;;;24.10;43.68;101887.78;5128120;27;20059;-79
2022/08/20 10:52:30;;;;;;;9.02;2.92;;;;;;;24.04;44.84;101887.97;5112232;27;20059;-79
2022/08/20 10:54:56;;;;;;;19.47;2.57;;;;;;;23.83;45.64;101880.38;5131606;28;20467;-79
2022/08/20 10:57:27;;;;;;;10.70;2.10;;;;;;;23.88;46.08;101883.25;5130679;27;20031;-78
2022/08/20 10:59:55;;;;;;;9.73;2.13;;;;;;;23.88;45.37;101883.25;5127427;27;20487;-78
2022/08/20 11:02:21;;;;;;;9.25;2.65;;;;;;;23.72;45.85;101884.16;5126946;27;20394;-78
2022/08/20 11:04:47;;;;;;;11.82;2.50;;;;;;;23.53;46.52;101880.78;5127016;27;20026;-78
2022/08/20 11:07:13;;;;;;;7.28;1.85;;;;;;;23.64;46.16;101887.41;5130025;28;20031;-78
2022/08/20 11:09:38;;;;;;;9.53;2.17;;;;;;;23.70;47.67;101881.59;5127647;27;20057;-78
2022/08/20 11:12:04;;;;;;;5.70;1.70;;;;;;;23.46;46.97;101873.69;5130161;27;20133;-78
2022/08/20 11:14:30;;;;;;;7.28;1.73;;;;;;;23.66;47.39;101880.44;5127289;27;20824;-78
2022/08/20 11:16:55;;;;;;;9.23;2.47;;;;;;;23.71;48.02;101885.25;5128421;27;20110;-78
2022/08/20 11:19:20;;;;;;;12.17;2.53;;;;;;;23.79;47.77;101890.41;5123211;27;20113;-77
2022/08/20 11:21:46;;;;;;;9.47;2.13;;;;;;;23.92;47.85;101893.72;5125123;27;20035;-78
2022/08/20 11:24:11;;;;;;;11.27;2.37;;;;;;;23.83;46.86;101888.78;5126765;27;20031;-78
2022/08/20 11:26:36;;;;;;;9.83;2.23;;;;;;;23.81;46.66;101883.47;5129179;27;20527;-78